sensor_id;sensor_type;location;lat;lon;timestamp;P1;durP1;ratioP1;P2;durP2;ratioP2
85131;SDS011;75493;51.772;19.464;2024-01-11T00:00:32;101.00;;;41.97;;
85131;SDS011;75493;51.772;19.464;2024-01-11T00:02:58;111.60;;;44.88;;
85131;SDS011;75493;51.772;19.464;2024-01-11T00:05:24;101.05;;;43.95;;
85131;SDS011;75493;51.772;19.464;2024-01-11T00:07:50;112.93;;;48.67;;
85131;SDS011;75493;51.772;19.464;2024-01-11T00:10:16;106.07;;;44.35;;
85131;SDS011;75493;51.772;19.464;2024-01-11T00:12:42;108.95;;;43.70;;
85131;SDS011;75493;51.772;19.464;2024-01-11T00:15:08;108.95;;;44.30;;
85131;SDS011;75493;51.772;19.464;2024-01-11T00:17:34;111.78;;;45.05;;
85131;SDS011;75493;51.772;19.464;2024-01-11T00:20:00;104.53;;;44.88;;
85131;SDS011;75493;51.772;19.464;2024-01-11T00:22:27;107.82;;;44.33;;
85131;SDS011;75493;51.772;19.464;2024-01-11T00:24:53;107.88;;;46.15;;
85131;SDS011;75493;51.772;19.464;2024-01-11T00:27:19;109.03;;;41.33;;
85131;SDS011;75493;51.772;19.464;2024-01-11T00:29:44;108.05;;;43.58;;
85131;SDS011;75493;51.772;19.464;2024-01-11T00:32:10;108.25;;;44.05;;
85131;SDS011;75493;51.772;19.464;2024-01-11T00:34:36;113.15;;;44.25;;
85131;SDS011;75493;51.772;19.464;2024-01-11T00:37:03;107.80;;;45.88;;
85131;SDS011;75493;51.772;19.464;2024-01-11T00:39:29;106.88;;;43.78;;
85131;SDS011;75493;51.772;19.464;2024-01-11T00:41:55;114.70;;;49.17;;
85131;SDS011;75493;51.772;19.464;2024-01-11T00:44:21;105.05;;;43.42;;
85131;SDS011;75493;51.772;19.464;2024-01-11T00:46:47;104.45;;;47.50;;
85131;SDS011;75493;51.772;19.464;2024-01-11T00:49:13;108.00;;;45.03;;
85131;SDS011;75493;51.772;19.464;2024-01-11T00:51:39;108.75;;;44.00;;
85131;SDS011;75493;51.772;19.464;2024-01-11T00:54:05;103.25;;;42.35;;
85131;SDS011;75493;51.772;19.464;2024-01-11T00:56:31;104.45;;;42.55;;
85131;SDS011;75493;51.772;19.464;2024-01-11T00:58:57;102.57;;;41.35;;
85131;SDS011;75493;51.772;19.464;2024-01-11T01:01:23;115.35;;;43.22;;
85131;SDS011;75493;51.772;19.464;2024-01-11T01:03:49;106.10;;;42.50;;
85131;SDS011;75493;51.772;19.464;2024-01-11T01:06:15;108.80;;;46.33;;
85131;SDS011;75493;51.772;19.464;2024-01-11T01:08:41;99.07;;;40.17;;
85131;SDS011;75493;51.772;19.464;2024-01-11T01:11:07;105.70;;;43.08;;
85131;SDS011;75493;51.772;19.464;2024-01-11T01:13:32;103.50;;;44.13;;
85131;SDS011;75493;51.772;19.464;2024-01-11T01:15:58;113.75;;;45.70;;
85131;SDS011;75493;51.772;19.464;2024-01-11T01:18:24;103.95;;;41.72;;
85131;SDS011;75493;51.772;19.464;2024-01-11T01:20:50;103.75;;;42.78;;
85131;SDS011;75493;51.772;19.464;2024-01-11T01:23:16;105.20;;;45.10;;
85131;SDS011;75493;51.772;19.464;2024-01-11T01:25:43;103.97;;;41.03;;
85131;SDS011;75493;51.772;19.464;2024-01-11T01:28:09;113.35;;;41.50;;
85131;SDS011;75493;51.772;19.464;2024-01-11T01:30:35;107.85;;;42.53;;
85131;SDS011;75493;51.772;19.464;2024-01-11T01:33:01;101.93;;;42.22;;
85131;SDS011;75493;51.772;19.464;2024-01-11T01:35:27;106.00;;;44.80;;
85131;SDS011;75493;51.772;19.464;2024-01-11T01:37:53;109.55;;;42.72;;
85131;SDS011;75493;51.772;19.464;2024-01-11T01:40:19;102.32;;;42.70;;
85131;SDS011;75493;51.772;19.464;2024-01-11T01:42:45;104.72;;;41.90;;
85131;SDS011;75493;51.772;19.464;2024-01-11T01:45:11;100.75;;;42.67;;
85131;SDS011;75493;51.772;19.464;2024-01-11T01:47:41;98.90;;;38.63;;
85131;SDS011;75493;51.772;19.464;2024-01-11T01:50:07;107.40;;;39.78;;
85131;SDS011;75493;51.772;19.464;2024-01-11T01:52:35;100.47;;;41.58;;
85131;SDS011;75493;51.772;19.464;2024-01-11T01:55:02;89.97;;;38.80;;
85131;SDS011;75493;51.772;19.464;2024-01-11T01:57:29;109.00;;;42.55;;
85131;SDS011;75493;51.772;19.464;2024-01-11T01:59:56;96.70;;;40.67;;
85131;SDS011;75493;51.772;19.464;2024-01-11T02:02:22;90.88;;;38.85;;
85131;SDS011;75493;51.772;19.464;2024-01-11T02:04:48;91.05;;;35.75;;
85131;SDS011;75493;51.772;19.464;2024-01-11T02:07:14;92.63;;;35.88;;
85131;SDS011;75493;51.772;19.464;2024-01-11T02:09:41;97.63;;;38.08;;
85131;SDS011;75493;51.772;19.464;2024-01-11T02:12:08;98.22;;;36.65;;
85131;SDS011;75493;51.772;19.464;2024-01-11T02:14:37;97.95;;;37.63;;
85131;SDS011;75493;51.772;19.464;2024-01-11T02:17:03;91.45;;;37.45;;
85131;SDS011;75493;51.772;19.464;2024-01-11T02:19:29;90.65;;;36.38;;
85131;SDS011;75493;51.772;19.464;2024-01-11T02:21:55;91.07;;;36.47;;
85131;SDS011;75493;51.772;19.464;2024-01-11T02:24:21;88.40;;;34.72;;
85131;SDS011;75493;51.772;19.464;2024-01-11T02:26:59;87.80;;;37.83;;
85131;SDS011;75493;51.772;19.464;2024-01-11T02:29:26;82.68;;;35.03;;
85131;SDS011;75493;51.772;19.464;2024-01-11T02:31:52;78.70;;;33.00;;
85131;SDS011;75493;51.772;19.464;2024-01-11T02:34:18;85.93;;;35.35;;
85131;SDS011;75493;51.772;19.464;2024-01-11T02:36:44;95.90;;;35.47;;
85131;SDS011;75493;51.772;19.464;2024-01-11T02:39:11;76.35;;;33.08;;
85131;SDS011;75493;51.772;19.464;2024-01-11T02:41:37;79.75;;;34.88;;
85131;SDS011;75493;51.772;19.464;2024-01-11T02:44:03;78.03;;;32.42;;
85131;SDS011;75493;51.772;19.464;2024-01-11T02:46:29;84.55;;;33.78;;
85131;SDS011;75493;51.772;19.464;2024-01-11T02:48:55;83.95;;;32.67;;
85131;SDS011;75493;51.772;19.464;2024-01-11T02:51:21;84.43;;;33.55;;
85131;SDS011;75493;51.772;19.464;2024-01-11T02:53:47;81.32;;;32.35;;
85131;SDS011;75493;51.772;19.464;2024-01-11T02:56:13;75.00;;;31.13;;
85131;SDS011;75493;51.772;19.464;2024-01-11T02:58:39;78.20;;;30.42;;
85131;SDS011;75493;51.772;19.464;2024-01-11T03:01:05;84.00;;;31.15;;
85131;SDS011;75493;51.772;19.464;2024-01-11T03:03:31;77.60;;;32.13;;
85131;SDS011;75493;51.772;19.464;2024-01-11T03:05:57;79.00;;;31.02;;
85131;SDS011;75493;51.772;19.464;2024-01-11T03:08:23;78.05;;;31.88;;
85131;SDS011;75493;51.772;19.464;2024-01-11T03:10:49;77.07;;;31.40;;
85131;SDS011;75493;51.772;19.464;2024-01-11T03:13:15;81.90;;;33.55;;
85131;SDS011;75493;51.772;19.464;2024-01-11T03:15:41;75.43;;;29.45;;
85131;SDS011;75493;51.772;19.464;2024-01-11T03:18:07;83.40;;;31.08;;
85131;SDS011;75493;51.772;19.464;2024-01-11T03:20:33;75.18;;;30.35;;
85131;SDS011;75493;51.772;19.464;2024-01-11T03:22:59;72.32;;;29.63;;
85131;SDS011;75493;51.772;19.464;2024-01-11T03:25:25;71.80;;;31.17;;
85131;SDS011;75493;51.772;19.464;2024-01-11T03:27:51;78.18;;;31.58;;
85131;SDS011;75493;51.772;19.464;2024-01-11T03:30:17;77.07;;;32.33;;
85131;SDS011;75493;51.772;19.464;2024-01-11T03:32:43;78.63;;;33.60;;
85131;SDS011;75493;51.772;19.464;2024-01-11T03:35:09;73.93;;;31.40;;
85131;SDS011;75493;51.772;19.464;2024-01-11T03:37:35;74.60;;;28.42;;
85131;SDS011;75493;51.772;19.464;2024-01-11T03:40:02;67.30;;;28.83;;
85131;SDS011;75493;51.772;19.464;2024-01-11T03:42:28;78.20;;;32.58;;
85131;SDS011;75493;51.772;19.464;2024-01-11T03:44:54;74.57;;;28.52;;
85131;SDS011;75493;51.772;19.464;2024-01-11T03:47:20;76.72;;;31.90;;
85131;SDS011;75493;51.772;19.464;2024-01-11T03:49:47;67.38;;;29.30;;
85131;SDS011;75493;51.772;19.464;2024-01-11T03:52:13;73.20;;;27.02;;
85131;SDS011;75493;51.772;19.464;2024-01-11T03:54:39;69.90;;;27.55;;
85131;SDS011;75493;51.772;19.464;2024-01-11T03:57:05;66.57;;;28.08;;
85131;SDS011;75493;51.772;19.464;2024-01-11T03:59:31;64.38;;;29.38;;
85131;SDS011;75493;51.772;19.464;2024-01-11T04:01:57;65.50;;;30.67;;
85131;SDS011;75493;51.772;19.464;2024-01-11T04:04:23;166.70;;;67.18;;
85131;SDS011;75493;51.772;19.464;2024-01-11T04:06:50;380.52;;;141.65;;
85131;SDS011;75493;51.772;19.464;2024-01-11T04:09:17;457.92;;;168.25;;
85131;SDS011;75493;51.772;19.464;2024-01-11T04:11:43;337.52;;;128.32;;
85131;SDS011;75493;51.772;19.464;2024-01-11T04:14:09;160.38;;;63.22;;
85131;SDS011;75493;51.772;19.464;2024-01-11T04:16:39;171.23;;;64.43;;
85131;SDS011;75493;51.772;19.464;2024-01-11T04:19:06;145.52;;;61.45;;
85131;SDS011;75493;51.772;19.464;2024-01-11T04:21:32;95.75;;;39.70;;
85131;SDS011;75493;51.772;19.464;2024-01-11T04:23:58;77.20;;;33.03;;
85131;SDS011;75493;51.772;19.464;2024-01-11T04:26:24;71.95;;;30.83;;
85131;SDS011;75493;51.772;19.464;2024-01-11T04:28:51;64.85;;;28.67;;
85131;SDS011;75493;51.772;19.464;2024-01-11T04:31:17;129.40;;;62.40;;
85131;SDS011;75493;51.772;19.464;2024-01-11T04:33:43;96.70;;;42.35;;
85131;SDS011;75493;51.772;19.464;2024-01-11T04:36:09;179.20;;;74.03;;
85131;SDS011;75493;51.772;19.464;2024-01-11T04:38:35;202.52;;;83.82;;
85131;SDS011;75493;51.772;19.464;2024-01-11T04:41:11;139.30;;;56.85;;
85131;SDS011;75493;51.772;19.464;2024-01-11T04:43:40;87.03;;;39.45;;
85131;SDS011;75493;51.772;19.464;2024-01-11T04:46:12;77.40;;;32.47;;
85131;SDS011;75493;51.772;19.464;2024-01-11T04:48:38;73.65;;;30.15;;
85131;SDS011;75493;51.772;19.464;2024-01-11T04:51:04;77.07;;;30.70;;
85131;SDS011;75493;51.772;19.464;2024-01-11T04:53:30;73.28;;;32.42;;
85131;SDS011;75493;51.772;19.464;2024-01-11T04:55:56;75.25;;;29.27;;
85131;SDS011;75493;51.772;19.464;2024-01-11T04:58:22;70.63;;;29.90;;
85131;SDS011;75493;51.772;19.464;2024-01-11T05:00:48;78.35;;;30.95;;
85131;SDS011;75493;51.772;19.464;2024-01-11T05:03:14;75.47;;;30.67;;
85131;SDS011;75493;51.772;19.464;2024-01-11T05:05:40;83.20;;;32.83;;
85131;SDS011;75493;51.772;19.464;2024-01-11T05:08:06;67.32;;;29.77;;
85131;SDS011;75493;51.772;19.464;2024-01-11T05:10:32;68.10;;;31.80;;
85131;SDS011;75493;51.772;19.464;2024-01-11T05:12:58;72.65;;;29.17;;
85131;SDS011;75493;51.772;19.464;2024-01-11T05:15:24;76.10;;;31.00;;
85131;SDS011;75493;51.772;19.464;2024-01-11T05:17:50;79.55;;;32.00;;
85131;SDS011;75493;51.772;19.464;2024-01-11T05:20:16;73.68;;;31.90;;
85131;SDS011;75493;51.772;19.464;2024-01-11T05:22:42;74.78;;;32.97;;
85131;SDS011;75493;51.772;19.464;2024-01-11T05:25:08;85.65;;;37.83;;
85131;SDS011;75493;51.772;19.464;2024-01-11T05:27:34;84.13;;;38.65;;
85131;SDS011;75493;51.772;19.464;2024-01-11T05:30:00;82.05;;;34.85;;
85131;SDS011;75493;51.772;19.464;2024-01-11T05:32:26;70.15;;;30.30;;
85131;SDS011;75493;51.772;19.464;2024-01-11T05:34:52;83.78;;;32.05;;
85131;SDS011;75493;51.772;19.464;2024-01-11T05:37:18;70.68;;;31.40;;
85131;SDS011;75493;51.772;19.464;2024-01-11T05:39:45;71.03;;;30.20;;
85131;SDS011;75493;51.772;19.464;2024-01-11T05:42:12;78.47;;;29.20;;
85131;SDS011;75493;51.772;19.464;2024-01-11T05:44:38;73.55;;;28.90;;
85131;SDS011;75493;51.772;19.464;2024-01-11T05:47:04;65.20;;;28.25;;
85131;SDS011;75493;51.772;19.464;2024-01-11T05:49:30;77.43;;;32.80;;
85131;SDS011;75493;51.772;19.464;2024-01-11T05:51:56;78.93;;;30.73;;
85131;SDS011;75493;51.772;19.464;2024-01-11T05:54:22;73.05;;;30.08;;
85131;SDS011;75493;51.772;19.464;2024-01-11T05:56:48;69.95;;;29.05;;
85131;SDS011;75493;51.772;19.464;2024-01-11T05:59:15;66.22;;;29.23;;
85131;SDS011;75493;51.772;19.464;2024-01-11T06:01:41;81.72;;;32.83;;
85131;SDS011;75493;51.772;19.464;2024-01-11T06:04:11;76.93;;;29.95;;
85131;SDS011;75493;51.772;19.464;2024-01-11T06:06:37;68.82;;;30.92;;
85131;SDS011;75493;51.772;19.464;2024-01-11T06:09:03;74.10;;;29.73;;
85131;SDS011;75493;51.772;19.464;2024-01-11T06:11:32;76.93;;;30.80;;
85131;SDS011;75493;51.772;19.464;2024-01-11T06:13:58;73.50;;;30.20;;
85131;SDS011;75493;51.772;19.464;2024-01-11T06:16:26;69.65;;;29.80;;
85131;SDS011;75493;51.772;19.464;2024-01-11T06:18:52;71.47;;;31.55;;
85131;SDS011;75493;51.772;19.464;2024-01-11T06:21:18;69.05;;;27.85;;
85131;SDS011;75493;51.772;19.464;2024-01-11T06:23:44;62.65;;;27.55;;
85131;SDS011;75493;51.772;19.464;2024-01-11T06:26:10;67.20;;;27.75;;
85131;SDS011;75493;51.772;19.464;2024-01-11T06:28:36;67.57;;;28.13;;
85131;SDS011;75493;51.772;19.464;2024-01-11T06:31:02;60.95;;;26.83;;
85131;SDS011;75493;51.772;19.464;2024-01-11T06:33:28;62.45;;;26.65;;
85131;SDS011;75493;51.772;19.464;2024-01-11T06:35:54;58.92;;;27.25;;
85131;SDS011;75493;51.772;19.464;2024-01-11T06:38:21;62.40;;;26.55;;
85131;SDS011;75493;51.772;19.464;2024-01-11T06:40:47;61.72;;;27.85;;
85131;SDS011;75493;51.772;19.464;2024-01-11T06:43:14;58.72;;;27.42;;
85131;SDS011;75493;51.772;19.464;2024-01-11T06:45:40;60.85;;;24.10;;
85131;SDS011;75493;51.772;19.464;2024-01-11T06:48:06;49.35;;;23.75;;
85131;SDS011;75493;51.772;19.464;2024-01-11T06:50:32;57.55;;;23.83;;
85131;SDS011;75493;51.772;19.464;2024-01-11T06:52:58;58.60;;;26.20;;
85131;SDS011;75493;51.772;19.464;2024-01-11T06:55:25;63.80;;;26.48;;
85131;SDS011;75493;51.772;19.464;2024-01-11T06:57:51;56.42;;;23.48;;
85131;SDS011;75493;51.772;19.464;2024-01-11T07:00:17;57.05;;;23.05;;
85131;SDS011;75493;51.772;19.464;2024-01-11T07:02:43;58.00;;;24.27;;
85131;SDS011;75493;51.772;19.464;2024-01-11T07:05:08;52.63;;;23.58;;
85131;SDS011;75493;51.772;19.464;2024-01-11T07:07:34;54.30;;;23.35;;
85131;SDS011;75493;51.772;19.464;2024-01-11T07:10:01;55.90;;;23.85;;
85131;SDS011;75493;51.772;19.464;2024-01-11T07:12:27;53.80;;;22.58;;
85131;SDS011;75493;51.772;19.464;2024-01-11T07:14:53;49.38;;;21.25;;
85131;SDS011;75493;51.772;19.464;2024-01-11T07:17:19;58.17;;;23.65;;
85131;SDS011;75493;51.772;19.464;2024-01-11T07:19:45;51.67;;;20.23;;
85131;SDS011;75493;51.772;19.464;2024-01-11T07:22:11;50.83;;;22.45;;
85131;SDS011;75493;51.772;19.464;2024-01-11T07:24:37;53.05;;;24.52;;
85131;SDS011;75493;51.772;19.464;2024-01-11T07:27:04;56.05;;;23.00;;
85131;SDS011;75493;51.772;19.464;2024-01-11T07:29:30;58.70;;;23.67;;
85131;SDS011;75493;51.772;19.464;2024-01-11T07:31:56;52.45;;;21.80;;
85131;SDS011;75493;51.772;19.464;2024-01-11T07:34:22;55.63;;;23.02;;
85131;SDS011;75493;51.772;19.464;2024-01-11T07:36:49;54.40;;;21.38;;
85131;SDS011;75493;51.772;19.464;2024-01-11T07:39:15;54.38;;;22.90;;
85131;SDS011;75493;51.772;19.464;2024-01-11T07:41:41;49.97;;;21.65;;
85131;SDS011;75493;51.772;19.464;2024-01-11T07:44:07;60.70;;;23.42;;
85131;SDS011;75493;51.772;19.464;2024-01-11T07:46:33;56.40;;;25.35;;
85131;SDS011;75493;51.772;19.464;2024-01-11T07:48:59;56.95;;;23.48;;
85131;SDS011;75493;51.772;19.464;2024-01-11T07:51:25;67.47;;;26.88;;
85131;SDS011;75493;51.772;19.464;2024-01-11T07:53:52;69.18;;;28.70;;
85131;SDS011;75493;51.772;19.464;2024-01-11T07:56:18;58.20;;;27.10;;
85131;SDS011;75493;51.772;19.464;2024-01-11T07:58:44;66.07;;;26.23;;
85131;SDS011;75493;51.772;19.464;2024-01-11T08:01:10;60.13;;;23.40;;
85131;SDS011;75493;51.772;19.464;2024-01-11T08:03:37;62.78;;;24.60;;
85131;SDS011;75493;51.772;19.464;2024-01-11T08:06:03;56.83;;;23.35;;
85131;SDS011;75493;51.772;19.464;2024-01-11T08:08:32;57.25;;;23.50;;
85131;SDS011;75493;51.772;19.464;2024-01-11T08:10:58;59.33;;;24.27;;
85131;SDS011;75493;51.772;19.464;2024-01-11T08:13:24;53.17;;;24.48;;
85131;SDS011;75493;51.772;19.464;2024-01-11T08:15:50;51.17;;;23.75;;
85131;SDS011;75493;51.772;19.464;2024-01-11T08:18:18;49.22;;;21.17;;
85131;SDS011;75493;51.772;19.464;2024-01-11T08:20:44;50.63;;;22.38;;
85131;SDS011;75493;51.772;19.464;2024-01-11T08:23:10;49.78;;;21.35;;
85131;SDS011;75493;51.772;19.464;2024-01-11T08:25:36;46.05;;;19.85;;
85131;SDS011;75493;51.772;19.464;2024-01-11T08:28:02;48.83;;;22.00;;
85131;SDS011;75493;51.772;19.464;2024-01-11T08:30:28;49.65;;;21.35;;
85131;SDS011;75493;51.772;19.464;2024-01-11T08:32:54;45.33;;;22.17;;
85131;SDS011;75493;51.772;19.464;2024-01-11T08:35:20;48.83;;;20.83;;
85131;SDS011;75493;51.772;19.464;2024-01-11T08:37:46;51.90;;;22.48;;
85131;SDS011;75493;51.772;19.464;2024-01-11T08:40:13;49.70;;;21.48;;
85131;SDS011;75493;51.772;19.464;2024-01-11T08:42:38;39.85;;;19.65;;
85131;SDS011;75493;51.772;19.464;2024-01-11T08:45:06;45.55;;;20.55;;
85131;SDS011;75493;51.772;19.464;2024-01-11T08:47:35;46.67;;;19.50;;
85131;SDS011;75493;51.772;19.464;2024-01-11T08:50:03;47.63;;;19.20;;
85131;SDS011;75493;51.772;19.464;2024-01-11T08:52:31;45.92;;;18.65;;
85131;SDS011;75493;51.772;19.464;2024-01-11T08:54:57;44.55;;;19.33;;
85131;SDS011;75493;51.772;19.464;2024-01-11T08:57:23;46.58;;;20.85;;
85131;SDS011;75493;51.772;19.464;2024-01-11T08:59:49;43.75;;;18.42;;
85131;SDS011;75493;51.772;19.464;2024-01-11T09:02:15;45.67;;;22.08;;
85131;SDS011;75493;51.772;19.464;2024-01-11T09:04:41;44.97;;;20.13;;
85131;SDS011;75493;51.772;19.464;2024-01-11T09:07:07;47.90;;;19.95;;
85131;SDS011;75493;51.772;19.464;2024-01-11T09:09:33;48.05;;;19.17;;
85131;SDS011;75493;51.772;19.464;2024-01-11T09:11:59;41.05;;;18.50;;
85131;SDS011;75493;51.772;19.464;2024-01-11T09:14:26;45.13;;;19.52;;
85131;SDS011;75493;51.772;19.464;2024-01-11T09:16:52;44.75;;;22.30;;
85131;SDS011;75493;51.772;19.464;2024-01-11T09:19:19;40.45;;;19.23;;
85131;SDS011;75493;51.772;19.464;2024-01-11T09:21:45;40.80;;;19.77;;
85131;SDS011;75493;51.772;19.464;2024-01-11T09:24:11;49.13;;;20.02;;
85131;SDS011;75493;51.772;19.464;2024-01-11T09:26:37;42.42;;;20.67;;
85131;SDS011;75493;51.772;19.464;2024-01-11T09:29:03;50.95;;;21.05;;
85131;SDS011;75493;51.772;19.464;2024-01-11T09:31:29;48.17;;;21.08;;
85131;SDS011;75493;51.772;19.464;2024-01-11T09:33:55;46.92;;;20.42;;
85131;SDS011;75493;51.772;19.464;2024-01-11T09:36:22;50.78;;;19.65;;
85131;SDS011;75493;51.772;19.464;2024-01-11T09:38:48;41.28;;;19.23;;
85131;SDS011;75493;51.772;19.464;2024-01-11T09:41:14;44.45;;;20.15;;
85131;SDS011;75493;51.772;19.464;2024-01-11T09:43:41;47.97;;;20.95;;
85131;SDS011;75493;51.772;19.464;2024-01-11T09:46:07;45.00;;;19.95;;
85131;SDS011;75493;51.772;19.464;2024-01-11T09:48:35;43.83;;;19.20;;
85131;SDS011;75493;51.772;19.464;2024-01-11T09:51:02;48.28;;;20.35;;
85131;SDS011;75493;51.772;19.464;2024-01-11T09:53:31;45.58;;;21.02;;
85131;SDS011;75493;51.772;19.464;2024-01-11T09:56:00;49.55;;;21.17;;
85131;SDS011;75493;51.772;19.464;2024-01-11T09:58:26;41.72;;;18.75;;
85131;SDS011;75493;51.772;19.464;2024-01-11T10:00:53;49.25;;;19.75;;
85131;SDS011;75493;51.772;19.464;2024-01-11T10:03:20;54.42;;;22.70;;
85131;SDS011;75493;51.772;19.464;2024-01-11T10:05:46;48.65;;;23.45;;
85131;SDS011;75493;51.772;19.464;2024-01-11T10:08:12;45.83;;;19.80;;
85131;SDS011;75493;51.772;19.464;2024-01-11T10:10:38;52.03;;;21.33;;
85131;SDS011;75493;51.772;19.464;2024-01-11T10:13:05;45.13;;;20.67;;
85131;SDS011;75493;51.772;19.464;2024-01-11T10:15:30;47.08;;;20.55;;
85131;SDS011;75493;51.772;19.464;2024-01-11T10:17:56;43.05;;;17.98;;
85131;SDS011;75493;51.772;19.464;2024-01-11T10:20:22;46.97;;;20.40;;
85131;SDS011;75493;51.772;19.464;2024-01-11T10:22:49;41.55;;;18.65;;
85131;SDS011;75493;51.772;19.464;2024-01-11T10:25:16;44.53;;;18.65;;
85131;SDS011;75493;51.772;19.464;2024-01-11T10:27:43;48.15;;;19.10;;
85131;SDS011;75493;51.772;19.464;2024-01-11T10:30:12;46.53;;;20.23;;
85131;SDS011;75493;51.772;19.464;2024-01-11T10:32:38;41.75;;;18.60;;
85131;SDS011;75493;51.772;19.464;2024-01-11T10:35:04;38.75;;;17.95;;
85131;SDS011;75493;51.772;19.464;2024-01-11T10:37:31;42.78;;;18.10;;
85131;SDS011;75493;51.772;19.464;2024-01-11T10:40:02;45.85;;;18.88;;
85131;SDS011;75493;51.772;19.464;2024-01-11T10:42:29;48.28;;;21.02;;
85131;SDS011;75493;51.772;19.464;2024-01-11T10:44:56;41.95;;;18.33;;
85131;SDS011;75493;51.772;19.464;2024-01-11T10:47:24;53.97;;;21.42;;
85131;SDS011;75493;51.772;19.464;2024-01-11T10:49:53;45.40;;;20.70;;
85131;SDS011;75493;51.772;19.464;2024-01-11T10:52:22;41.75;;;18.10;;
85131;SDS011;75493;51.772;19.464;2024-01-11T10:54:48;42.35;;;17.55;;
85131;SDS011;75493;51.772;19.464;2024-01-11T10:57:15;43.10;;;18.40;;
85131;SDS011;75493;51.772;19.464;2024-01-11T10:59:41;43.95;;;17.17;;
85131;SDS011;75493;51.772;19.464;2024-01-11T11:02:08;42.65;;;17.92;;
85131;SDS011;75493;51.772;19.464;2024-01-11T11:04:38;39.25;;;16.23;;
85131;SDS011;75493;51.772;19.464;2024-01-11T11:07:04;39.55;;;17.52;;
85131;SDS011;75493;51.772;19.464;2024-01-11T11:09:32;37.85;;;16.92;;
85131;SDS011;75493;51.772;19.464;2024-01-11T11:12:00;40.05;;;16.45;;
85131;SDS011;75493;51.772;19.464;2024-01-11T11:14:27;37.78;;;16.77;;
85131;SDS011;75493;51.772;19.464;2024-01-11T11:16:54;40.35;;;15.70;;
85131;SDS011;75493;51.772;19.464;2024-01-11T11:19:20;37.58;;;15.68;;
85131;SDS011;75493;51.772;19.464;2024-01-11T11:21:47;43.70;;;18.23;;
85131;SDS011;75493;51.772;19.464;2024-01-11T11:24:13;44.97;;;18.10;;
85131;SDS011;75493;51.772;19.464;2024-01-11T11:26:41;54.58;;;19.85;;
85131;SDS011;75493;51.772;19.464;2024-01-11T11:29:08;51.08;;;19.20;;
85131;SDS011;75493;51.772;19.464;2024-01-11T11:31:37;57.75;;;21.05;;
85131;SDS011;75493;51.772;19.464;2024-01-11T11:34:04;43.50;;;19.27;;
85131;SDS011;75493;51.772;19.464;2024-01-11T11:36:30;45.17;;;19.40;;
85131;SDS011;75493;51.772;19.464;2024-01-11T11:38:59;50.03;;;18.02;;
85131;SDS011;75493;51.772;19.464;2024-01-11T11:41:31;45.90;;;19.77;;
85131;SDS011;75493;51.772;19.464;2024-01-11T11:44:01;45.60;;;18.40;;
85131;SDS011;75493;51.772;19.464;2024-01-11T11:46:31;46.83;;;18.23;;
85131;SDS011;75493;51.772;19.464;2024-01-11T11:48:57;52.60;;;18.40;;
85131;SDS011;75493;51.772;19.464;2024-01-11T11:51:23;43.78;;;17.67;;
85131;SDS011;75493;51.772;19.464;2024-01-11T11:53:50;53.25;;;19.70;;
85131;SDS011;75493;51.772;19.464;2024-01-11T11:56:22;55.90;;;20.63;;
85131;SDS011;75493;51.772;19.464;2024-01-11T11:58:48;43.50;;;16.85;;
85131;SDS011;75493;51.772;19.464;2024-01-11T12:01:15;46.28;;;18.48;;
85131;SDS011;75493;51.772;19.464;2024-01-11T12:03:44;43.83;;;18.17;;
85131;SDS011;75493;51.772;19.464;2024-01-11T12:06:15;48.60;;;20.42;;
85131;SDS011;75493;51.772;19.464;2024-01-11T12:08:41;52.05;;;19.05;;
85131;SDS011;75493;51.772;19.464;2024-01-11T12:11:07;52.40;;;24.00;;
85131;SDS011;75493;51.772;19.464;2024-01-11T12:13:34;53.08;;;20.27;;
85131;SDS011;75493;51.772;19.464;2024-01-11T12:16:01;44.28;;;18.90;;
85131;SDS011;75493;51.772;19.464;2024-01-11T12:18:27;46.67;;;20.27;;
85131;SDS011;75493;51.772;19.464;2024-01-11T12:20:53;50.65;;;21.13;;
85131;SDS011;75493;51.772;19.464;2024-01-11T12:23:19;48.17;;;21.20;;
85131;SDS011;75493;51.772;19.464;2024-01-11T12:25:45;54.03;;;22.80;;
85131;SDS011;75493;51.772;19.464;2024-01-11T12:28:11;46.03;;;20.42;;
85131;SDS011;75493;51.772;19.464;2024-01-11T12:30:37;49.15;;;22.15;;
85131;SDS011;75493;51.772;19.464;2024-01-11T12:33:03;45.08;;;20.42;;
85131;SDS011;75493;51.772;19.464;2024-01-11T12:35:30;50.53;;;21.17;;
85131;SDS011;75493;51.772;19.464;2024-01-11T12:38:05;43.10;;;21.90;;
85131;SDS011;75493;51.772;19.464;2024-01-11T12:40:32;47.20;;;18.45;;
85131;SDS011;75493;51.772;19.464;2024-01-11T12:43:00;44.17;;;20.13;;
85131;SDS011;75493;51.772;19.464;2024-01-11T12:45:26;42.67;;;19.25;;
85131;SDS011;75493;51.772;19.464;2024-01-11T12:47:52;44.25;;;17.63;;
85131;SDS011;75493;51.772;19.464;2024-01-11T12:50:22;42.63;;;18.55;;
85131;SDS011;75493;51.772;19.464;2024-01-11T12:53:07;40.92;;;17.95;;
85131;SDS011;75493;51.772;19.464;2024-01-11T12:55:34;36.78;;;16.55;;
85131;SDS011;75493;51.772;19.464;2024-01-11T12:58:09;43.05;;;17.50;;
85131;SDS011;75493;51.772;19.464;2024-01-11T13:00:35;50.92;;;19.73;;
85131;SDS011;75493;51.772;19.464;2024-01-11T13:03:02;52.03;;;21.70;;
85131;SDS011;75493;51.772;19.464;2024-01-11T13:05:28;49.83;;;20.75;;
85131;SDS011;75493;51.772;19.464;2024-01-11T13:07:59;49.92;;;22.20;;
85131;SDS011;75493;51.772;19.464;2024-01-11T13:10:26;43.60;;;21.65;;
85131;SDS011;75493;51.772;19.464;2024-01-11T13:12:53;47.28;;;20.55;;
85131;SDS011;75493;51.772;19.464;2024-01-11T13:15:20;40.00;;;19.45;;
85131;SDS011;75493;51.772;19.464;2024-01-11T13:17:45;41.85;;;16.63;;
85131;SDS011;75493;51.772;19.464;2024-01-11T13:20:11;37.30;;;16.10;;
85131;SDS011;75493;51.772;19.464;2024-01-11T13:22:38;44.72;;;17.45;;
85131;SDS011;75493;51.772;19.464;2024-01-11T13:25:04;37.03;;;16.73;;
85131;SDS011;75493;51.772;19.464;2024-01-11T13:27:30;44.05;;;18.70;;
85131;SDS011;75493;51.772;19.464;2024-01-11T13:29:56;48.22;;;16.67;;
85131;SDS011;75493;51.772;19.464;2024-01-11T13:32:23;47.35;;;18.73;;
85131;SDS011;75493;51.772;19.464;2024-01-11T13:34:49;46.83;;;19.95;;
85131;SDS011;75493;51.772;19.464;2024-01-11T13:37:18;50.33;;;19.23;;
85131;SDS011;75493;51.772;19.464;2024-01-11T13:39:44;54.63;;;19.55;;
85131;SDS011;75493;51.772;19.464;2024-01-11T13:42:10;50.25;;;20.35;;
85131;SDS011;75493;51.772;19.464;2024-01-11T13:44:36;51.78;;;20.75;;
85131;SDS011;75493;51.772;19.464;2024-01-11T13:47:02;44.88;;;19.30;;
85131;SDS011;75493;51.772;19.464;2024-01-11T13:49:28;45.35;;;18.27;;
85131;SDS011;75493;51.772;19.464;2024-01-11T13:51:54;40.58;;;17.85;;
85131;SDS011;75493;51.772;19.464;2024-01-11T13:54:20;43.28;;;19.85;;
85131;SDS011;75493;51.772;19.464;2024-01-11T13:56:47;45.50;;;18.48;;
85131;SDS011;75493;51.772;19.464;2024-01-11T13:59:13;46.15;;;19.25;;
85131;SDS011;75493;51.772;19.464;2024-01-11T14:01:39;53.83;;;22.77;;